sensor_id;sensor_type;location;lat;lon;timestamp;P1;durP1;ratioP1;P2;durP2;ratioP2
13327;SDS011;6733;51.044;3.746;2023-11-21T00:00:22;22.93;;;16.47;;
13327;SDS011;6733;51.044;3.746;2023-11-21T00:02:48;21.90;;;17.10;;
13327;SDS011;6733;51.044;3.746;2023-11-21T00:05:16;21.17;;;16.23;;
13327;SDS011;6733;51.044;3.746;2023-11-21T00:07:42;20.53;;;16.77;;
13327;SDS011;6733;51.044;3.746;2023-11-21T00:10:09;22.80;;;16.43;;
13327;SDS011;6733;51.044;3.746;2023-11-21T00:12:37;21.33;;;16.13;;
13327;SDS011;6733;51.044;3.746;2023-11-21T00:15:03;23.13;;;16.70;;
13327;SDS011;6733;51.044;3.746;2023-11-21T00:17:30;20.13;;;16.80;;
13327;SDS011;6733;51.044;3.746;2023-11-21T00:19:57;22.13;;;16.70;;
13327;SDS011;6733;51.044;3.746;2023-11-21T00:22:23;22.13;;;15.93;;
13327;SDS011;6733;51.044;3.746;2023-11-21T00:24:49;18.57;;;16.07;;
13327;SDS011;6733;51.044;3.746;2023-11-21T00:27:15;20.93;;;15.93;;
13327;SDS011;6733;51.044;3.746;2023-11-21T00:29:41;21.47;;;15.63;;
13327;SDS011;6733;51.044;3.746;2023-11-21T00:32:07;21.83;;;16.87;;
13327;SDS011;6733;51.044;3.746;2023-11-21T00:34:34;21.23;;;15.53;;
13327;SDS011;6733;51.044;3.746;2023-11-21T00:37:00;18.63;;;14.90;;
13327;SDS011;6733;51.044;3.746;2023-11-21T00:39:28;21.77;;;15.80;;
13327;SDS011;6733;51.044;3.746;2023-11-21T00:41:54;20.40;;;14.67;;
13327;SDS011;6733;51.044;3.746;2023-11-21T00:44:20;17.50;;;15.50;;
13327;SDS011;6733;51.044;3.746;2023-11-21T00:46:46;21.40;;;15.97;;
13327;SDS011;6733;51.044;3.746;2023-11-21T00:49:15;24.90;;;14.50;;
13327;SDS011;6733;51.044;3.746;2023-11-21T00:51:41;18.37;;;14.87;;
13327;SDS011;6733;51.044;3.746;2023-11-21T00:54:07;19.63;;;14.83;;
13327;SDS011;6733;51.044;3.746;2023-11-21T00:56:33;19.87;;;14.83;;
13327;SDS011;6733;51.044;3.746;2023-11-21T00:58:59;19.67;;;14.57;;
13327;SDS011;6733;51.044;3.746;2023-11-21T01:01:26;20.47;;;14.50;;
13327;SDS011;6733;51.044;3.746;2023-11-21T01:03:52;18.20;;;12.70;;
13327;SDS011;6733;51.044;3.746;2023-11-21T01:06:19;21.53;;;13.97;;
13327;SDS011;6733;51.044;3.746;2023-11-21T01:08:45;19.43;;;12.90;;
13327;SDS011;6733;51.044;3.746;2023-11-21T01:11:12;16.77;;;12.23;;
13327;SDS011;6733;51.044;3.746;2023-11-21T01:13:38;22.40;;;12.77;;
13327;SDS011;6733;51.044;3.746;2023-11-21T01:16:05;18.27;;;12.60;;
13327;SDS011;6733;51.044;3.746;2023-11-21T01:18:32;14.30;;;12.43;;
13327;SDS011;6733;51.044;3.746;2023-11-21T01:20:58;15.43;;;12.10;;
13327;SDS011;6733;51.044;3.746;2023-11-21T01:23:27;15.90;;;11.30;;
13327;SDS011;6733;51.044;3.746;2023-11-21T01:25:55;17.83;;;13.00;;
13327;SDS011;6733;51.044;3.746;2023-11-21T01:28:22;15.23;;;12.17;;
13327;SDS011;6733;51.044;3.746;2023-11-21T01:30:48;17.70;;;12.03;;
13327;SDS011;6733;51.044;3.746;2023-11-21T01:33:15;16.73;;;11.80;;
13327;SDS011;6733;51.044;3.746;2023-11-21T01:35:41;15.73;;;11.83;;
13327;SDS011;6733;51.044;3.746;2023-11-21T01:38:08;19.63;;;12.60;;
13327;SDS011;6733;51.044;3.746;2023-11-21T01:40:34;16.93;;;12.27;;
13327;SDS011;6733;51.044;3.746;2023-11-21T01:43:01;15.53;;;11.93;;
13327;SDS011;6733;51.044;3.746;2023-11-21T01:45:30;16.47;;;12.40;;
13327;SDS011;6733;51.044;3.746;2023-11-21T01:47:59;17.87;;;12.03;;
13327;SDS011;6733;51.044;3.746;2023-11-21T01:50:27;17.60;;;12.40;;
13327;SDS011;6733;51.044;3.746;2023-11-21T01:52:54;16.10;;;12.27;;
13327;SDS011;6733;51.044;3.746;2023-11-21T01:55:21;14.33;;;12.07;;
13327;SDS011;6733;51.044;3.746;2023-11-21T01:57:47;16.97;;;12.00;;
13327;SDS011;6733;51.044;3.746;2023-11-21T02:00:13;15.63;;;12.03;;
13327;SDS011;6733;51.044;3.746;2023-11-21T02:02:44;19.50;;;12.77;;
13327;SDS011;6733;51.044;3.746;2023-11-21T02:05:12;17.73;;;11.87;;
13327;SDS011;6733;51.044;3.746;2023-11-21T02:07:40;18.23;;;12.20;;
13327;SDS011;6733;51.044;3.746;2023-11-21T02:10:08;14.67;;;11.80;;
13327;SDS011;6733;51.044;3.746;2023-11-21T02:12:35;15.70;;;12.20;;
13327;SDS011;6733;51.044;3.746;2023-11-21T02:15:02;17.93;;;12.80;;
13327;SDS011;6733;51.044;3.746;2023-11-21T02:17:31;16.80;;;12.03;;
13327;SDS011;6733;51.044;3.746;2023-11-21T02:19:58;14.87;;;11.90;;
13327;SDS011;6733;51.044;3.746;2023-11-21T02:22:26;17.50;;;11.20;;
13327;SDS011;6733;51.044;3.746;2023-11-21T02:24:56;17.47;;;11.83;;
13327;SDS011;6733;51.044;3.746;2023-11-21T02:27:23;16.67;;;11.30;;
13327;SDS011;6733;51.044;3.746;2023-11-21T02:29:50;16.23;;;11.50;;
13327;SDS011;6733;51.044;3.746;2023-11-21T02:57:33;19.17;;;12.87;;
13327;SDS011;6733;51.044;3.746;2023-11-21T02:59:59;16.70;;;11.93;;
13327;SDS011;6733;51.044;3.746;2023-11-21T03:02:26;20.30;;;13.23;;
13327;SDS011;6733;51.044;3.746;2023-11-21T03:04:52;15.23;;;12.93;;
13327;SDS011;6733;51.044;3.746;2023-11-21T03:07:18;16.17;;;12.00;;
13327;SDS011;6733;51.044;3.746;2023-11-21T03:09:45;19.57;;;13.10;;
13327;SDS011;6733;51.044;3.746;2023-11-21T03:12:11;19.97;;;12.87;;
13327;SDS011;6733;51.044;3.746;2023-11-21T03:14:41;14.60;;;11.83;;
13327;SDS011;6733;51.044;3.746;2023-11-21T03:17:07;15.53;;;12.13;;
13327;SDS011;6733;51.044;3.746;2023-11-21T03:19:34;16.20;;;11.70;;
13327;SDS011;6733;51.044;3.746;2023-11-21T03:22:00;17.33;;;12.50;;
13327;SDS011;6733;51.044;3.746;2023-11-21T03:24:26;17.03;;;12.30;;
13327;SDS011;6733;51.044;3.746;2023-11-21T03:26:52;16.13;;;11.77;;
13327;SDS011;6733;51.044;3.746;2023-11-21T03:29:18;20.70;;;11.60;;
13327;SDS011;6733;51.044;3.746;2023-11-21T03:31:44;18.20;;;11.17;;
13327;SDS011;6733;51.044;3.746;2023-11-21T03:34:15;15.60;;;11.17;;
13327;SDS011;6733;51.044;3.746;2023-11-21T03:36:43;16.87;;;11.90;;
13327;SDS011;6733;51.044;3.746;2023-11-21T03:39:09;16.33;;;11.77;;
13327;SDS011;6733;51.044;3.746;2023-11-21T03:41:35;18.00;;;11.83;;
13327;SDS011;6733;51.044;3.746;2023-11-21T03:44:01;17.37;;;11.67;;
13327;SDS011;6733;51.044;3.746;2023-11-21T03:46:28;15.97;;;12.30;;
13327;SDS011;6733;51.044;3.746;2023-11-21T03:48:54;14.73;;;11.40;;
13327;SDS011;6733;51.044;3.746;2023-11-21T03:51:21;15.90;;;12.03;;
13327;SDS011;6733;51.044;3.746;2023-11-21T03:53:47;22.33;;;13.40;;
13327;SDS011;6733;51.044;3.746;2023-11-21T03:56:13;18.77;;;12.53;;
13327;SDS011;6733;51.044;3.746;2023-11-21T03:58:40;15.37;;;12.27;;
13327;SDS011;6733;51.044;3.746;2023-11-21T04:01:06;18.83;;;11.83;;
13327;SDS011;6733;51.044;3.746;2023-11-21T04:03:32;16.40;;;12.10;;
13327;SDS011;6733;51.044;3.746;2023-11-21T04:05:59;17.23;;;11.90;;
13327;SDS011;6733;51.044;3.746;2023-11-21T04:08:26;17.57;;;12.27;;
13327;SDS011;6733;51.044;3.746;2023-11-21T04:10:52;16.60;;;11.60;;
13327;SDS011;6733;51.044;3.746;2023-11-21T04:13:19;14.33;;;11.60;;
13327;SDS011;6733;51.044;3.746;2023-11-21T04:15:45;17.50;;;12.17;;
13327;SDS011;6733;51.044;3.746;2023-11-21T04:18:11;17.40;;;11.53;;
13327;SDS011;6733;51.044;3.746;2023-11-21T04:20:37;14.63;;;11.67;;
13327;SDS011;6733;51.044;3.746;2023-11-21T04:23:03;16.90;;;11.67;;
13327;SDS011;6733;51.044;3.746;2023-11-21T04:25:29;18.67;;;12.43;;
13327;SDS011;6733;51.044;3.746;2023-11-21T04:27:56;16.83;;;11.53;;
13327;SDS011;6733;51.044;3.746;2023-11-21T04:30:22;14.50;;;11.80;;
13327;SDS011;6733;51.044;3.746;2023-11-21T04:32:48;19.63;;;11.83;;
13327;SDS011;6733;51.044;3.746;2023-11-21T04:35:14;18.60;;;12.40;;
13327;SDS011;6733;51.044;3.746;2023-11-21T04:37:41;16.40;;;12.03;;
13327;SDS011;6733;51.044;3.746;2023-11-21T04:40:07;17.40;;;11.83;;
13327;SDS011;6733;51.044;3.746;2023-11-21T04:42:34;13.93;;;11.47;;
13327;SDS011;6733;51.044;3.746;2023-11-21T04:45:01;15.57;;;12.03;;
13327;SDS011;6733;51.044;3.746;2023-11-21T04:47:32;14.97;;;11.73;;
13327;SDS011;6733;51.044;3.746;2023-11-21T04:49:59;17.67;;;12.23;;
13327;SDS011;6733;51.044;3.746;2023-11-21T04:52:25;15.20;;;12.10;;
13327;SDS011;6733;51.044;3.746;2023-11-21T04:54:51;14.63;;;12.50;;
13327;SDS011;6733;51.044;3.746;2023-11-21T04:57:20;17.13;;;12.67;;
13327;SDS011;6733;51.044;3.746;2023-11-21T04:59:48;19.23;;;12.57;;
13327;SDS011;6733;51.044;3.746;2023-11-21T05:02:15;22.73;;;12.20;;
13327;SDS011;6733;51.044;3.746;2023-11-21T05:04:41;16.77;;;13.47;;
13327;SDS011;6733;51.044;3.746;2023-11-21T05:07:08;21.33;;;13.23;;
13327;SDS011;6733;51.044;3.746;2023-11-21T05:09:34;14.77;;;12.17;;
13327;SDS011;6733;51.044;3.746;2023-11-21T05:12:01;19.00;;;12.53;;
13327;SDS011;6733;51.044;3.746;2023-11-21T05:14:27;16.60;;;11.93;;
13327;SDS011;6733;51.044;3.746;2023-11-21T05:16:54;14.43;;;12.33;;
13327;SDS011;6733;51.044;3.746;2023-11-21T05:19:20;19.53;;;12.53;;
13327;SDS011;6733;51.044;3.746;2023-11-21T05:21:47;16.03;;;12.60;;
13327;SDS011;6733;51.044;3.746;2023-11-21T05:24:13;15.50;;;13.27;;
13327;SDS011;6733;51.044;3.746;2023-11-21T05:26:39;19.00;;;14.60;;
13327;SDS011;6733;51.044;3.746;2023-11-21T05:29:05;22.37;;;14.00;;
13327;SDS011;6733;51.044;3.746;2023-11-21T05:31:32;16.03;;;12.37;;
13327;SDS011;6733;51.044;3.746;2023-11-21T05:33:58;15.37;;;13.13;;
13327;SDS011;6733;51.044;3.746;2023-11-21T05:36:24;17.37;;;13.07;;
13327;SDS011;6733;51.044;3.746;2023-11-21T05:38:50;18.10;;;13.83;;
13327;SDS011;6733;51.044;3.746;2023-11-21T05:41:17;21.63;;;14.20;;
13327;SDS011;6733;51.044;3.746;2023-11-21T05:43:43;18.40;;;13.13;;
13327;SDS011;6733;51.044;3.746;2023-11-21T05:46:09;19.03;;;13.77;;
13327;SDS011;6733;51.044;3.746;2023-11-21T05:48:35;16.10;;;12.73;;
13327;SDS011;6733;51.044;3.746;2023-11-21T05:51:04;16.87;;;14.10;;
13327;SDS011;6733;51.044;3.746;2023-11-21T05:53:32;16.90;;;13.57;;
13327;SDS011;6733;51.044;3.746;2023-11-21T05:55:58;16.30;;;14.17;;
13327;SDS011;6733;51.044;3.746;2023-11-21T05:58:25;15.93;;;13.23;;
13327;SDS011;6733;51.044;3.746;2023-11-21T06:00:51;20.07;;;14.10;;
13327;SDS011;6733;51.044;3.746;2023-11-21T06:03:17;16.90;;;13.77;;
13327;SDS011;6733;51.044;3.746;2023-11-21T06:05:43;17.53;;;14.17;;
13327;SDS011;6733;51.044;3.746;2023-11-21T06:08:10;20.23;;;15.10;;
13327;SDS011;6733;51.044;3.746;2023-11-21T06:10:36;18.93;;;14.57;;
13327;SDS011;6733;51.044;3.746;2023-11-21T06:13:02;19.90;;;15.17;;
13327;SDS011;6733;51.044;3.746;2023-11-21T06:15:29;19.30;;;14.33;;
13327;SDS011;6733;51.044;3.746;2023-11-21T06:17:56;17.33;;;13.87;;
13327;SDS011;6733;51.044;3.746;2023-11-21T06:20:22;18.10;;;14.50;;
13327;SDS011;6733;51.044;3.746;2023-11-21T06:22:49;17.20;;;13.97;;
13327;SDS011;6733;51.044;3.746;2023-11-21T06:25:15;18.87;;;13.87;;
13327;SDS011;6733;51.044;3.746;2023-11-21T06:27:43;18.10;;;13.90;;
13327;SDS011;6733;51.044;3.746;2023-11-21T06:30:11;18.63;;;13.40;;
13327;SDS011;6733;51.044;3.746;2023-11-21T06:32:39;18.50;;;13.67;;
13327;SDS011;6733;51.044;3.746;2023-11-21T06:35:06;17.60;;;13.53;;
13327;SDS011;6733;51.044;3.746;2023-11-21T06:37:34;18.03;;;14.20;;
13327;SDS011;6733;51.044;3.746;2023-11-21T06:40:00;17.10;;;13.43;;
13327;SDS011;6733;51.044;3.746;2023-11-21T06:42:26;19.33;;;12.73;;
13327;SDS011;6733;51.044;3.746;2023-11-21T06:44:54;17.40;;;12.60;;
13327;SDS011;6733;51.044;3.746;2023-11-21T06:47:24;19.60;;;13.10;;
13327;SDS011;6733;51.044;3.746;2023-11-21T06:49:52;16.27;;;13.13;;
13327;SDS011;6733;51.044;3.746;2023-11-21T06:52:18;18.33;;;12.93;;
13327;SDS011;6733;51.044;3.746;2023-11-21T06:54:45;16.90;;;13.03;;
13327;SDS011;6733;51.044;3.746;2023-11-21T06:57:13;20.07;;;14.63;;
13327;SDS011;6733;51.044;3.746;2023-11-21T06:59:39;18.67;;;13.67;;
13327;SDS011;6733;51.044;3.746;2023-11-21T07:02:05;21.23;;;14.00;;
13327;SDS011;6733;51.044;3.746;2023-11-21T07:04:32;19.83;;;14.17;;
13327;SDS011;6733;51.044;3.746;2023-11-21T07:06:59;19.30;;;13.17;;
13327;SDS011;6733;51.044;3.746;2023-11-21T07:09:25;20.47;;;14.30;;
13327;SDS011;6733;51.044;3.746;2023-11-21T07:11:52;21.57;;;14.17;;
13327;SDS011;6733;51.044;3.746;2023-11-21T07:14:18;20.10;;;15.30;;
13327;SDS011;6733;51.044;3.746;2023-11-21T07:16:45;20.63;;;14.03;;
13327;SDS011;6733;51.044;3.746;2023-11-21T07:19:12;20.13;;;13.70;;
13327;SDS011;6733;51.044;3.746;2023-11-21T07:21:38;20.30;;;14.23;;
13327;SDS011;6733;51.044;3.746;2023-11-21T07:24:05;23.17;;;14.13;;
13327;SDS011;6733;51.044;3.746;2023-11-21T07:26:33;19.93;;;13.97;;
13327;SDS011;6733;51.044;3.746;2023-11-21T07:29:03;17.23;;;13.03;;
13327;SDS011;6733;51.044;3.746;2023-11-21T07:31:30;19.03;;;13.70;;
13327;SDS011;6733;51.044;3.746;2023-11-21T07:33:59;19.10;;;13.93;;
13327;SDS011;6733;51.044;3.746;2023-11-21T07:36:26;22.53;;;14.87;;
13327;SDS011;6733;51.044;3.746;2023-11-21T07:38:53;18.27;;;13.03;;
13327;SDS011;6733;51.044;3.746;2023-11-21T07:41:19;19.30;;;13.43;;
13327;SDS011;6733;51.044;3.746;2023-11-21T07:43:46;18.07;;;12.53;;
13327;SDS011;6733;51.044;3.746;2023-11-21T07:46:13;17.60;;;12.70;;
13327;SDS011;6733;51.044;3.746;2023-11-21T07:48:39;17.60;;;12.47;;
13327;SDS011;6733;51.044;3.746;2023-11-21T07:51:07;16.57;;;12.57;;
13327;SDS011;6733;51.044;3.746;2023-11-21T07:53:34;15.93;;;12.23;;
13327;SDS011;6733;51.044;3.746;2023-11-21T07:56:07;16.00;;;11.37;;
13327;SDS011;6733;51.044;3.746;2023-11-21T07:58:34;13.13;;;10.40;;
13327;SDS011;6733;51.044;3.746;2023-11-21T08:01:01;16.03;;;11.30;;
13327;SDS011;6733;51.044;3.746;2023-11-21T08:03:29;15.33;;;11.40;;
13327;SDS011;6733;51.044;3.746;2023-11-21T08:05:56;15.87;;;11.70;;
13327;SDS011;6733;51.044;3.746;2023-11-21T08:08:23;18.87;;;13.67;;
13327;SDS011;6733;51.044;3.746;2023-11-21T08:10:50;16.67;;;13.30;;
13327;SDS011;6733;51.044;3.746;2023-11-21T08:13:23;14.37;;;12.00;;
13327;SDS011;6733;51.044;3.746;2023-11-21T08:15:49;14.07;;;10.03;;
13327;SDS011;6733;51.044;3.746;2023-11-21T08:18:16;13.77;;;10.07;;
13327;SDS011;6733;51.044;3.746;2023-11-21T08:20:43;12.50;;;9.73;;
13327;SDS011;6733;51.044;3.746;2023-11-21T08:23:14;11.63;;;9.10;;
13327;SDS011;6733;51.044;3.746;2023-11-21T08:25:42;11.10;;;9.77;;
13327;SDS011;6733;51.044;3.746;2023-11-21T08:28:09;11.17;;;9.87;;
13327;SDS011;6733;51.044;3.746;2023-11-21T08:30:35;10.80;;;9.47;;
13327;SDS011;6733;51.044;3.746;2023-11-21T08:33:01;12.30;;;9.23;;
13327;SDS011;6733;51.044;3.746;2023-11-21T08:35:29;10.87;;;9.37;;
13327;SDS011;6733;51.044;3.746;2023-11-21T08:37:56;11.70;;;9.50;;
13327;SDS011;6733;51.044;3.746;2023-11-21T08:40:22;10.27;;;9.27;;
13327;SDS011;6733;51.044;3.746;2023-11-21T08:42:49;11.00;;;9.30;;
13327;SDS011;6733;51.044;3.746;2023-11-21T08:45:17;11.07;;;9.83;;
13327;SDS011;6733;51.044;3.746;2023-11-21T08:47:44;13.23;;;9.47;;
13327;SDS011;6733;51.044;3.746;2023-11-21T08:50:11;10.30;;;9.20;;
13327;SDS011;6733;51.044;3.746;2023-11-21T08:52:38;10.67;;;9.50;;
13327;SDS011;6733;51.044;3.746;2023-11-21T08:55:06;11.73;;;9.97;;
13327;SDS011;6733;51.044;3.746;2023-11-21T08:57:38;11.00;;;9.73;;
13327;SDS011;6733;51.044;3.746;2023-11-21T09:00:06;11.10;;;9.97;;
13327;SDS011;6733;51.044;3.746;2023-11-21T09:02:43;12.87;;;9.97;;
13327;SDS011;6733;51.044;3.746;2023-11-21T09:05:10;11.00;;;9.80;;
13327;SDS011;6733;51.044;3.746;2023-11-21T09:07:38;12.07;;;10.03;;
13327;SDS011;6733;51.044;3.746;2023-11-21T09:10:06;11.43;;;10.13;;
13327;SDS011;6733;51.044;3.746;2023-11-21T09:12:34;12.00;;;10.17;;
13327;SDS011;6733;51.044;3.746;2023-11-21T09:15:05;11.57;;;10.37;;
13327;SDS011;6733;51.044;3.746;2023-11-21T09:17:32;11.13;;;10.03;;
13327;SDS011;6733;51.044;3.746;2023-11-21T09:19:59;11.27;;;10.13;;
13327;SDS011;6733;51.044;3.746;2023-11-21T09:22:26;14.10;;;10.63;;
13327;SDS011;6733;51.044;3.746;2023-11-21T09:24:52;13.10;;;8.93;;
13327;SDS011;6733;51.044;3.746;2023-11-21T09:27:18;10.27;;;7.90;;
13327;SDS011;6733;51.044;3.746;2023-11-21T09:29:47;8.80;;;7.10;;
13327;SDS011;6733;51.044;3.746;2023-11-21T09:32:14;9.13;;;7.10;;
13327;SDS011;6733;51.044;3.746;2023-11-21T09:34:44;7.03;;;6.33;;
13327;SDS011;6733;51.044;3.746;2023-11-21T09:37:10;5.50;;;4.97;;
13327;SDS011;6733;51.044;3.746;2023-11-21T09:39:36;12.17;;;5.20;;
13327;SDS011;6733;51.044;3.746;2023-11-21T09:42:08;9.03;;;4.70;;
13327;SDS011;6733;51.044;3.746;2023-11-21T09:44:44;7.73;;;5.00;;
13327;SDS011;6733;51.044;3.746;2023-11-21T09:47:20;11.87;;;4.90;;
13327;SDS011;6733;51.044;3.746;2023-11-21T09:49:47;6.90;;;4.13;;
13327;SDS011;6733;51.044;3.746;2023-11-21T09:52:22;4.60;;;3.47;;
13327;SDS011;6733;51.044;3.746;2023-11-21T09:54:53;7.17;;;3.90;;
13327;SDS011;6733;51.044;3.746;2023-11-21T09:57:23;6.20;;;4.10;;
13327;SDS011;6733;51.044;3.746;2023-11-21T09:59:51;6.77;;;4.77;;
13327;SDS011;6733;51.044;3.746;2023-11-21T10:02:27;11.83;;;4.63;;
13327;SDS011;6733;51.044;3.746;2023-11-21T10:04:58;10.37;;;4.70;;
13327;SDS011;6733;51.044;3.746;2023-11-21T10:07:25;10.27;;;4.07;;
13327;SDS011;6733;51.044;3.746;2023-11-21T10:09:52;10.10;;;4.60;;
13327;SDS011;6733;51.044;3.746;2023-11-21T10:12:19;7.13;;;4.47;;
13327;SDS011;6733;51.044;3.746;2023-11-21T10:14:51;8.57;;;4.20;;
13327;SDS011;6733;51.044;3.746;2023-11-21T10:17:23;5.33;;;4.10;;
13327;SDS011;6733;51.044;3.746;2023-11-21T10:19:54;7.30;;;4.60;;
13327;SDS011;6733;51.044;3.746;2023-11-21T10:22:21;6.00;;;3.90;;
13327;SDS011;6733;51.044;3.746;2023-11-21T10:24:47;9.03;;;4.30;;
13327;SDS011;6733;51.044;3.746;2023-11-21T10:27:14;7.57;;;3.87;;
13327;SDS011;6733;51.044;3.746;2023-11-21T10:29:40;6.13;;;4.50;;
13327;SDS011;6733;51.044;3.746;2023-11-21T10:32:07;8.17;;;4.63;;
13327;SDS011;6733;51.044;3.746;2023-11-21T10:34:33;7.13;;;4.50;;
13327;SDS011;6733;51.044;3.746;2023-11-21T10:37:07;7.83;;;4.50;;
13327;SDS011;6733;51.044;3.746;2023-11-21T10:39:38;11.23;;;5.03;;
13327;SDS011;6733;51.044;3.746;2023-11-21T10:42:07;11.73;;;4.63;;
13327;SDS011;6733;51.044;3.746;2023-11-21T10:44:34;7.90;;;4.47;;
13327;SDS011;6733;51.044;3.746;2023-11-21T10:47:00;7.17;;;4.20;;
13327;SDS011;6733;51.044;3.746;2023-11-21T10:49:29;10.63;;;4.73;;
13327;SDS011;6733;51.044;3.746;2023-11-21T10:51:56;8.03;;;4.53;;
13327;SDS011;6733;51.044;3.746;2023-11-21T10:54:23;9.33;;;4.57;;
13327;SDS011;6733;51.044;3.746;2023-11-21T10:56:53;7.97;;;4.10;;
13327;SDS011;6733;51.044;3.746;2023-11-21T10:59:25;6.67;;;3.83;;
13327;SDS011;6733;51.044;3.746;2023-11-21T11:01:57;5.87;;;3.83;;
13327;SDS011;6733;51.044;3.746;2023-11-21T11:04:27;5.97;;;3.73;;
13327;SDS011;6733;51.044;3.746;2023-11-21T11:07:03;8.77;;;3.73;;
13327;SDS011;6733;51.044;3.746;2023-11-21T11:09:31;9.07;;;4.43;;
13327;SDS011;6733;51.044;3.746;2023-11-21T11:11:59;8.97;;;3.60;;
13327;SDS011;6733;51.044;3.746;2023-11-21T11:14:27;14.87;;;3.73;;
13327;SDS011;6733;51.044;3.746;2023-11-21T11:16:54;8.63;;;3.70;;
13327;SDS011;6733;51.044;3.746;2023-11-21T11:19:21;8.90;;;4.57;;
13327;SDS011;6733;51.044;3.746;2023-11-21T11:29:47;8.07;;;4.23;;
13327;SDS011;6733;51.044;3.746;2023-11-21T11:38:15;10.60;;;4.23;;
13327;SDS011;6733;51.044;3.746;2023-11-21T11:40:44;7.07;;;3.93;;
13327;SDS011;6733;51.044;3.746;2023-11-21T11:43:11;8.13;;;3.50;;
13327;SDS011;6733;51.044;3.746;2023-11-21T11:45:37;7.57;;;3.20;;
13327;SDS011;6733;51.044;3.746;2023-11-21T11:48:08;10.40;;;3.27;;
13327;SDS011;6733;51.044;3.746;2023-11-21T11:50:42;5.93;;;3.03;;
13327;SDS011;6733;51.044;3.746;2023-11-21T11:53:33;6.80;;;3.20;;
13327;SDS011;6733;51.044;3.746;2023-11-21T11:59:00;6.53;;;2.63;;
13327;SDS011;6733;51.044;3.746;2023-11-21T12:01:28;5.13;;;2.90;;
13327;SDS011;6733;51.044;3.746;2023-11-21T12:06:43;7.87;;;3.13;;
13327;SDS011;6733;51.044;3.746;2023-11-21T12:09:22;5.40;;;2.83;;
13327;SDS011;6733;51.044;3.746;2023-11-21T12:11:49;11.63;;;3.33;;
13327;SDS011;6733;51.044;3.746;2023-11-21T12:14:16;7.63;;;2.70;;
13327;SDS011;6733;51.044;3.746;2023-11-21T12:16:43;6.63;;;3.10;;
13327;SDS011;6733;51.044;3.746;2023-11-21T12:19:11;6.10;;;2.97;;
13327;SDS011;6733;51.044;3.746;2023-11-21T12:21:38;5.43;;;2.80;;
13327;SDS011;6733;51.044;3.746;2023-11-21T12:24:06;7.43;;;3.27;;
13327;SDS011;6733;51.044;3.746;2023-11-21T12:26:34;5.73;;;2.93;;
13327;SDS011;6733;51.044;3.746;2023-11-21T12:29:04;7.07;;;3.10;;
13327;SDS011;6733;51.044;3.746;2023-11-21T12:31:33;5.87;;;2.90;;
13327;SDS011;6733;51.044;3.746;2023-11-21T12:34:02;7.40;;;3.10;;
13327;SDS011;6733;51.044;3.746;2023-11-21T12:36:30;8.03;;;3.50;;
13327;SDS011;6733;51.044;3.746;2023-11-21T12:38:56;5.50;;;3.07;;
13327;SDS011;6733;51.044;3.746;2023-11-21T12:41:22;7.03;;;3.27;;
13327;SDS011;6733;51.044;3.746;2023-11-21T12:43:49;8.27;;;3.23;;
13327;SDS011;6733;51.044;3.746;2023-11-21T12:46:15;6.70;;;2.93;;
13327;SDS011;6733;51.044;3.746;2023-11-21T12:48:42;4.50;;;2.90;;
13327;SDS011;6733;51.044;3.746;2023-11-21T12:51:11;5.60;;;3.33;;
13327;SDS011;6733;51.044;3.746;2023-11-21T12:53:40;5.37;;;3.30;;
13327;SDS011;6733;51.044;3.746;2023-11-21T12:56:11;5.43;;;3.47;;
13327;SDS011;6733;51.044;3.746;2023-11-21T12:58:38;5.37;;;3.53;;
13327;SDS011;6733;51.044;3.746;2023-11-21T13:01:07;5.60;;;3.83;;
13327;SDS011;6733;51.044;3.746;2023-11-21T13:03:47;8.43;;;3.50;;
13327;SDS011;6733;51.044;3.746;2023-11-21T13:06:16;6.30;;;3.60;;
13327;SDS011;6733;51.044;3.746;2023-11-21T13:08:43;3.87;;;3.47;;
13327;SDS011;6733;51.044;3.746;2023-11-21T13:11:10;6.00;;;4.23;;
13327;SDS011;6733;51.044;3.746;2023-11-21T13:13:37;4.43;;;3.97;;
13327;SDS011;6733;51.044;3.746;2023-11-21T13:16:08;6.50;;;4.50;;
13327;SDS011;6733;51.044;3.746;2023-11-21T13:18:35;4.93;;;4.00;;
13327;SDS011;6733;51.044;3.746;2023-11-21T13:21:03;8.60;;;4.37;;
13327;SDS011;6733;51.044;3.746;2023-11-21T13:23:39;5.30;;;4.10;;
13327;SDS011;6733;51.044;3.746;2023-11-21T13:26:07;6.63;;;4.60;;
13327;SDS011;6733;51.044;3.746;2023-11-21T13:28:35;5.90;;;4.67;;
13327;SDS011;6733;51.044;3.746;2023-11-21T13:31:03;6.27;;;4.80;;
13327;SDS011;6733;51.044;3.746;2023-11-21T13:33:47;5.67;;;4.13;;
13327;SDS011;6733;51.044;3.746;2023-11-21T13:36:24;4.27;;;3.87;;
13327;SDS011;6733;51.044;3.746;2023-11-21T13:38:51;5.30;;;3.90;;
13327;SDS011;6733;51.044;3.746;2023-11-21T13:41:20;4.60;;;3.70;;
13327;SDS011;6733;51.044;3.746;2023-11-21T13:43:53;4.23;;;3.47;;
13327;SDS011;6733;51.044;3.746;2023-11-21T13:46:31;5.83;;;4.30;;
13327;SDS011;6733;51.044;3.746;2023-11-21T13:49:02;4.40;;;4.00;;
13327;SDS011;6733;51.044;3.746;2023-11-21T13:51:28;3.37;;;3.03;;
13327;SDS011;6733;51.044;3.746;2023-11-21T13:54:06;7.67;;;4.50;;
13327;SDS011;6733;51.044;3.746;2023-11-21T13:56:38;4.97;;;3.63;;
13327;SDS011;6733;51.044;3.746;2023-11-21T13:59:05;3.90;;;3.50;;
13327;SDS011;6733;51.044;3.746;2023-11-21T14:01:50;4.33;;;3.77;;
13327;SDS011;6733;51.044;3.746;2023-11-21T14:04:37;4.10;;;3.80;;
13327;SDS011;6733;51.044;3.746;2023-11-21T14:07:20;5.03;;;3.70;;
13327;SDS011;6733;51.044;3.746;2023-11-21T14:09:58;3.80;;;3.50;;
13327;SDS011;6733;51.044;3.746;2023-11-21T14:12:24;5.60;;;3.67;;
13327;SDS011;6733;51.044;3.746;2023-11-21T14:14:50;4.90;;;4.30;;
13327;SDS011;6733;51.044;3.746;2023-11-21T14:17:16;7.87;;;3.87;;
13327;SDS011;6733;51.044;3.746;2023-11-21T14:19:43;4.60;;;4.10;;
13327;SDS011;6733;51.044;3.746;2023-11-21T14:22:10;4.83;;;4.23;;
13327;SDS011;6733;51.044;3.746;2023-11-21T14:24:36;4.37;;;3.73;;
13327;SDS011;6733;51.044;3.746;2023-11-21T14:27:02;4.80;;;4.40;;
13327;SDS011;6733;51.044;3.746;2023-11-21T14:29:29;4.40;;;4.00;;
13327;SDS011;6733;51.044;3.746;2023-11-21T14:31:56;4.53;;;4.10;;
13327;SDS011;6733;51.044;3.746;2023-11-21T14:34:23;4.73;;;4.30;;
13327;SDS011;6733;51.044;3.746;2023-11-21T14:36:50;4.60;;;4.10;;
13327;SDS011;6733;51.044;3.746;2023-11-21T14:39:16;4.50;;;4.10;;
13327;SDS011;6733;51.044;3.746;2023-11-21T14:41:49;4.10;;;3.80;;
13327;SDS011;6733;51.044;3.746;2023-11-21T14:44:16;4.40;;;4.00;;
13327;SDS011;6733;51.044;3.746;2023-11-21T14:46:42;4.97;;;3.90;;
13327;SDS011;6733;51.044;3.746;2023-11-21T14:49:14;4.30;;;3.60;;
13327;SDS011;6733;51.044;3.746;2023-11-21T14:51:50;4.27;;;3.97;;
13327;SDS011;6733;51.044;3.746;2023-11-21T14:54:29;3.67;;;3.37;;
13327;SDS011;6733;51.044;3.746;2023-11-21T14:57:06;4.30;;;3.60;;
13327;SDS011;6733;51.044;3.746;2023-11-21T14:59:37;4.37;;;3.90;;
13327;SDS011;6733;51.044;3.746;2023-11-21T15:02:08;4.70;;;4.30;;
13327;SDS011;6733;51.044;3.746;2023-11-21T15:04:42;4.00;;;3.70;;
13327;SDS011;6733;51.044;3.746;2023-11-21T15:07:09;5.10;;;4.70;;
13327;SDS011;6733;51.044;3.746;2023-11-21T15:09:37;4.90;;;4.50;;
13327;SDS011;6733;51.044;3.746;2023-11-21T15:12:10;5.50;;;5.00;;
13327;SDS011;6733;51.044;3.746;2023-11-21T15:14:41;5.90;;;4.90;;
13327;SDS011;6733;51.044;3.746;2023-11-21T15:17:14;5.20;;;4.70;;
13327;SDS011;6733;51.044;3.746;2023-11-21T15:19:48;5.57;;;5.07;;
13327;SDS011;6733;51.044;3.746;2023-11-21T15:22:14;5.40;;;4.90;;
13327;SDS011;6733;51.044;3.746;2023-11-21T15:24:41;6.17;;;5.57;;
13327;SDS011;6733;51.044;3.746;2023-11-21T15:27:13;6.10;;;5.60;;
13327;SDS011;6733;51.044;3.746;2023-11-21T15:29:40;6.90;;;6.30;;
13327;SDS011;6733;51.044;3.746;2023-11-21T15:32:07;6.80;;;6.20;;
13327;SDS011;6733;51.044;3.746;2023-11-21T15:34:33;6.13;;;5.63;;